Diego Aracena Airport

SCDA · 塔拉帕卡大区, 智利

METAR SCDA · Diego Aracena Airport

23 六月 19:00 LT
60m
罗盘
风向 的 风向 230° Diego Aracena Airport 1/19
风: 4 kt, 2 beaufort

3 kt

3 kt
改变
0 ft 1.000 2.000 3.000 4.000 5.000
Cloud Cloud Cloud Cloud Cloud Cloud Cloud Cloud
OVC 2.400
METAR SCDA 232300Z 23004KT 9999 OVC024 17/12 Q1014

METAR Diego Aracena Airport - SCDA/IQQ

Diego Aracena Airport是,智利中的中型机场。 该机场位于纬度-20,53520和经度-70,18130。 该机场有一条跑道: 1/19. 本场的ICAO机场代码为SCDA。 该机场的IATA代码为IQQ。 机场在Antofagasta FIR中。

该航空气象观测是针对Diego Aracena Airport在2024年6月23日 19:00, 当地时间进行的。

机场观察

风向为230°,速度为4 kt。

可见度为10 km 或者更多。

有乌云密布在2.400 ft的高度。 破损或更高的上限为2.400 ft。

温度和风寒是17 °C。 露点为12 °C,相对湿度为73%。 海平面上的气压为1014 hPa (QNH)。

白天

今天,太阳从07:16升起,在18:09降落。 这适用于Diego Aracena Airport,世界夏令时可能有所不同。 当地时间与世界标准时间之间的时差为-4 小时。 夏令时目前正在进行中。

公司介绍

在这个机场,你可以找到飞行俱乐部。 本场上唯一已知的公司是Club Aéreo Iquique。

体会

到Vliegles.nl去找飞行课程,跳伞和其他飞行体验。 浏览页面,了解Diego Aracena Airport附近所有可用的活动。 你也可以使用搜索功能来寻找你所在地附近的特定飞行课程、跳伞或其他飞行体验。

跑道

Id 标题 侧风 逆风 侧风 %
1/19 002°-182° 3 kt 3 kt 74 %

逆风成分最大的方向会被突出显示,并用于横风计算。 这并不一定意味着这个方向在使用。

乌云

2.400 ft OVC 乌云密布

温度 & 天气

温度 17 °C
露点 12 °C
相对湿度 73%
Kp-index 2 (0-9)

白天

日出
07:16 (11:16)
中午
12:43
日落
18:09

小工具

你想在你的网站上有一个关于Diego Aracena Airport的当前航空天气(METAR)的小部件吗?

显示HTML代码
报告变更